sensor_id;sensor_type;location;lat;lon;timestamp;pressure;altitude;pressure_sealevel;temperature
68012;BMP180;54794;48.348;7.878;2022-11-20T00:01:24;98701.00;;;9.50
68012;BMP180;54794;48.348;7.878;2022-11-20T00:03:55;98703.00;;;9.50
68012;BMP180;54794;48.348;7.878;2022-11-20T00:06:23;98703.00;;;9.30
68012;BMP180;54794;48.348;7.878;2022-11-20T00:08:54;98707.00;;;9.30
68012;BMP180;54794;48.348;7.878;2022-11-20T00:11:24;98712.00;;;9.10
68012;BMP180;54794;48.348;7.878;2022-11-20T00:13:54;98718.00;;;9.20
68012;BMP180;54794;48.348;7.878;2022-11-20T00:16:26;98716.00;;;9.50
68012;BMP180;54794;48.348;7.878;2022-11-20T00:18:54;98722.00;;;9.50
68012;BMP180;54794;48.348;7.878;2022-11-20T00:21:26;98732.00;;;9.50
68012;BMP180;54794;48.348;7.878;2022-11-20T00:23:56;98735.00;;;9.50
68012;BMP180;54794;48.348;7.878;2022-11-20T00:26:25;98734.00;;;9.60
68012;BMP180;54794;48.348;7.878;2022-11-20T00:28:58;98735.00;;;9.30
68012;BMP180;54794;48.348;7.878;2022-11-20T00:31:26;98746.00;;;9.20
68012;BMP180;54794;48.348;7.878;2022-11-20T00:33:54;98741.00;;;9.20
68012;BMP180;54794;48.348;7.878;2022-11-20T00:36:27;98732.00;;;9.10
68012;BMP180;54794;48.348;7.878;2022-11-20T00:38:56;98745.00;;;9.10
68012;BMP180;54794;48.348;7.878;2022-11-20T00:41:26;98746.00;;;8.80
68012;BMP180;54794;48.348;7.878;2022-11-20T00:43:55;98738.00;;;9.10
68012;BMP180;54794;48.348;7.878;2022-11-20T00:46:25;98737.00;;;9.20
68012;BMP180;54794;48.348;7.878;2022-11-20T00:48:52;98736.00;;;9.20
68012;BMP180;54794;48.348;7.878;2022-11-20T00:51:24;98745.00;;;9.10
68012;BMP180;54794;48.348;7.878;2022-11-20T00:53:51;98735.00;;;9.20
68012;BMP180;54794;48.348;7.878;2022-11-20T00:56:19;98741.00;;;9.30
68012;BMP180;54794;48.348;7.878;2022-11-20T00:58:48;98734.00;;;9.20
68012;BMP180;54794;48.348;7.878;2022-11-20T01:01:23;98737.00;;;9.30
68012;BMP180;54794;48.348;7.878;2022-11-20T01:03:55;98737.00;;;9.20
68012;BMP180;54794;48.348;7.878;2022-11-20T01:06:29;98739.00;;;9.20
68012;BMP180;54794;48.348;7.878;2022-11-20T01:09:00;98744.00;;;9.00
68012;BMP180;54794;48.348;7.878;2022-11-20T01:11:30;98738.00;;;9.20
68012;BMP180;54794;48.348;7.878;2022-11-20T01:13:59;98741.00;;;9.20
68012;BMP180;54794;48.348;7.878;2022-11-20T01:16:34;98745.00;;;9.10
68012;BMP180;54794;48.348;7.878;2022-11-20T01:19:07;98744.00;;;9.20
68012;BMP180;54794;48.348;7.878;2022-11-20T01:21:38;98743.00;;;9.20
68012;BMP180;54794;48.348;7.878;2022-11-20T01:24:07;98740.00;;;8.90
68012;BMP180;54794;48.348;7.878;2022-11-20T01:26:37;98740.00;;;9.20
68012;BMP180;54794;48.348;7.878;2022-11-20T01:29:05;98749.00;;;9.00
68012;BMP180;54794;48.348;7.878;2022-11-20T01:31:36;98734.00;;;9.10
68012;BMP180;54794;48.348;7.878;2022-11-20T01:34:11;98740.00;;;8.90
68012;BMP180;54794;48.348;7.878;2022-11-20T01:36:40;98740.00;;;9.20
68012;BMP180;54794;48.348;7.878;2022-11-20T01:39:14;98734.00;;;9.30
68012;BMP180;54794;48.348;7.878;2022-11-20T01:41:42;98735.00;;;9.30
68012;BMP180;54794;48.348;7.878;2022-11-20T01:44:58;98741.00;;;9.30
68012;BMP180;54794;48.348;7.878;2022-11-20T01:47:38;98726.00;;;9.20
68012;BMP180;54794;48.348;7.878;2022-11-20T01:50:17;98742.00;;;9.30
68012;BMP180;54794;48.348;7.878;2022-11-20T01:53:02;98736.00;;;9.30
68012;BMP180;54794;48.348;7.878;2022-11-20T01:55:39;98734.00;;;9.20
68012;BMP180;54794;48.348;7.878;2022-11-20T01:58:08;98738.00;;;9.20
68012;BMP180;54794;48.348;7.878;2022-11-20T02:00:35;98730.00;;;9.20
68012;BMP180;54794;48.348;7.878;2022-11-20T02:03:19;98729.00;;;9.20
68012;BMP180;54794;48.348;7.878;2022-11-20T02:08:28;98730.00;;;9.10
68012;BMP180;54794;48.348;7.878;2022-11-20T02:10:56;98735.00;;;9.20
68012;BMP180;54794;48.348;7.878;2022-11-20T02:13:23;98731.00;;;9.20
68012;BMP180;54794;48.348;7.878;2022-11-20T02:16:19;98726.00;;;9.20
68012;BMP180;54794;48.348;7.878;2022-11-20T02:18:48;98721.00;;;9.10
68012;BMP180;54794;48.348;7.878;2022-11-20T02:21:40;98724.00;;;9.20
68012;BMP180;54794;48.348;7.878;2022-11-20T02:24:12;98723.00;;;9.00
68012;BMP180;54794;48.348;7.878;2022-11-20T02:32:26;98725.00;;;8.90
68012;BMP180;54794;48.348;7.878;2022-11-20T02:34:54;98726.00;;;8.90
68012;BMP180;54794;48.348;7.878;2022-11-20T02:37:22;98723.00;;;8.80
68012;BMP180;54794;48.348;7.878;2022-11-20T02:39:51;98725.00;;;8.90
68012;BMP180;54794;48.348;7.878;2022-11-20T02:42:19;98724.00;;;9.00
68012;BMP180;54794;48.348;7.878;2022-11-20T02:44:45;98709.00;;;9.00
68012;BMP180;54794;48.348;7.878;2022-11-20T02:47:12;98706.00;;;9.10
68012;BMP180;54794;48.348;7.878;2022-11-20T02:49:39;98713.00;;;9.00
68012;BMP180;54794;48.348;7.878;2022-11-20T02:52:06;98704.00;;;9.10
68012;BMP180;54794;48.348;7.878;2022-11-20T02:54:33;98717.00;;;9.00
68012;BMP180;54794;48.348;7.878;2022-11-20T02:57:00;98717.00;;;8.80
68012;BMP180;54794;48.348;7.878;2022-11-20T02:59:27;98724.00;;;8.90
68012;BMP180;54794;48.348;7.878;2022-11-20T03:01:53;98715.00;;;9.00
68012;BMP180;54794;48.348;7.878;2022-11-20T03:04:20;98718.00;;;8.90
68012;BMP180;54794;48.348;7.878;2022-11-20T03:06:47;98721.00;;;8.90
68012;BMP180;54794;48.348;7.878;2022-11-20T03:09:14;98714.00;;;9.00
68012;BMP180;54794;48.348;7.878;2022-11-20T03:11:41;98716.00;;;8.90
68012;BMP180;54794;48.348;7.878;2022-11-20T03:14:08;98717.00;;;9.00
68012;BMP180;54794;48.348;7.878;2022-11-20T03:16:35;98714.00;;;8.80
68012;BMP180;54794;48.348;7.878;2022-11-20T03:19:02;98721.00;;;8.80
68012;BMP180;54794;48.348;7.878;2022-11-20T03:21:29;98718.00;;;8.80
68012;BMP180;54794;48.348;7.878;2022-11-20T03:23:56;98720.00;;;8.60
68012;BMP180;54794;48.348;7.878;2022-11-20T03:26:25;98721.00;;;8.60
68012;BMP180;54794;48.348;7.878;2022-11-20T03:28:56;98714.00;;;8.60
68012;BMP180;54794;48.348;7.878;2022-11-20T03:31:30;98727.00;;;8.50
68012;BMP180;54794;48.348;7.878;2022-11-20T03:33:58;98729.00;;;8.50
68012;BMP180;54794;48.348;7.878;2022-11-20T03:36:27;98721.00;;;8.70
68012;BMP180;54794;48.348;7.878;2022-11-20T03:38:56;98725.00;;;8.70
68012;BMP180;54794;48.348;7.878;2022-11-20T03:41:29;98721.00;;;8.70
68012;BMP180;54794;48.348;7.878;2022-11-20T03:44:02;98721.00;;;8.70
68012;BMP180;54794;48.348;7.878;2022-11-20T03:46:29;98729.00;;;8.60
68012;BMP180;54794;48.348;7.878;2022-11-20T03:48:57;98730.00;;;8.80
68012;BMP180;54794;48.348;7.878;2022-11-20T03:51:28;98730.00;;;8.90
68012;BMP180;54794;48.348;7.878;2022-11-20T03:53:59;98741.00;;;8.70
68012;BMP180;54794;48.348;7.878;2022-11-20T03:56:31;98738.00;;;8.90
68012;BMP180;54794;48.348;7.878;2022-11-20T03:58:58;98730.00;;;8.80
68012;BMP180;54794;48.348;7.878;2022-11-20T04:01:30;98729.00;;;8.90
68012;BMP180;54794;48.348;7.878;2022-11-20T04:03:57;98724.00;;;9.00
68012;BMP180;54794;48.348;7.878;2022-11-20T04:06:36;98728.00;;;9.00
68012;BMP180;54794;48.348;7.878;2022-11-20T04:09:05;98730.00;;;9.00
68012;BMP180;54794;48.348;7.878;2022-11-20T04:11:35;98722.00;;;9.00
68012;BMP180;54794;48.348;7.878;2022-11-20T04:14:05;98726.00;;;9.00
68012;BMP180;54794;48.348;7.878;2022-11-20T04:16:35;98735.00;;;8.80
68012;BMP180;54794;48.348;7.878;2022-11-20T04:19:06;98740.00;;;8.70
68012;BMP180;54794;48.348;7.878;2022-11-20T04:21:33;98727.00;;;8.80
68012;BMP180;54794;48.348;7.878;2022-11-20T04:24:01;98720.00;;;8.90
68012;BMP180;54794;48.348;7.878;2022-11-20T04:26:30;98726.00;;;8.90
68012;BMP180;54794;48.348;7.878;2022-11-20T04:28:58;98727.00;;;8.80
68012;BMP180;54794;48.348;7.878;2022-11-20T04:31:31;98741.00;;;8.80
68012;BMP180;54794;48.348;7.878;2022-11-20T04:34:06;98740.00;;;8.80
68012;BMP180;54794;48.348;7.878;2022-11-20T04:36:33;98724.00;;;8.80
68012;BMP180;54794;48.348;7.878;2022-11-20T04:39:05;98734.00;;;8.80
68012;BMP180;54794;48.348;7.878;2022-11-20T04:41:35;98733.00;;;8.80
68012;BMP180;54794;48.348;7.878;2022-11-20T04:44:05;98719.00;;;8.90
68012;BMP180;54794;48.348;7.878;2022-11-20T04:46:39;98725.00;;;8.90
68012;BMP180;54794;48.348;7.878;2022-11-20T04:49:08;98726.00;;;8.90
68012;BMP180;54794;48.348;7.878;2022-11-20T04:51:35;98719.00;;;9.00
68012;BMP180;54794;48.348;7.878;2022-11-20T04:54:02;98724.00;;;8.90
68012;BMP180;54794;48.348;7.878;2022-11-20T04:56:29;98734.00;;;8.90
68012;BMP180;54794;48.348;7.878;2022-11-20T04:59:01;98720.00;;;9.00
68012;BMP180;54794;48.348;7.878;2022-11-20T05:01:28;98728.00;;;9.00
68012;BMP180;54794;48.348;7.878;2022-11-20T05:03:55;98727.00;;;8.90
68012;BMP180;54794;48.348;7.878;2022-11-20T05:06:22;98721.00;;;9.00
68012;BMP180;54794;48.348;7.878;2022-11-20T05:08:49;98718.00;;;9.10
68012;BMP180;54794;48.348;7.878;2022-11-20T05:11:20;98723.00;;;9.00
68012;BMP180;54794;48.348;7.878;2022-11-20T05:13:48;98728.00;;;9.00
68012;BMP180;54794;48.348;7.878;2022-11-20T05:16:26;98726.00;;;8.90
68012;BMP180;54794;48.348;7.878;2022-11-20T05:18:55;98720.00;;;8.90
68012;BMP180;54794;48.348;7.878;2022-11-20T05:21:22;98714.00;;;9.00
68012;BMP180;54794;48.348;7.878;2022-11-20T05:23:49;98724.00;;;8.80
68012;BMP180;54794;48.348;7.878;2022-11-20T05:26:22;98727.00;;;8.90
68012;BMP180;54794;48.348;7.878;2022-11-20T05:28:51;98731.00;;;8.80
68012;BMP180;54794;48.348;7.878;2022-11-20T05:31:21;98723.00;;;8.50
68012;BMP180;54794;48.348;7.878;2022-11-20T05:33:56;98722.00;;;8.80
68012;BMP180;54794;48.348;7.878;2022-11-20T05:36:24;98721.00;;;8.90
68012;BMP180;54794;48.348;7.878;2022-11-20T05:38:50;98718.00;;;8.90
68012;BMP180;54794;48.348;7.878;2022-11-20T05:41:24;98717.00;;;9.00
68012;BMP180;54794;48.348;7.878;2022-11-20T05:43:51;98709.00;;;9.00
68012;BMP180;54794;48.348;7.878;2022-11-20T05:46:20;98716.00;;;9.10
68012;BMP180;54794;48.348;7.878;2022-11-20T05:48:55;98718.00;;;8.80
68012;BMP180;54794;48.348;7.878;2022-11-20T05:51:22;98719.00;;;9.00
68012;BMP180;54794;48.348;7.878;2022-11-20T05:53:49;98725.00;;;9.00
68012;BMP180;54794;48.348;7.878;2022-11-20T05:56:19;98723.00;;;8.90
68012;BMP180;54794;48.348;7.878;2022-11-20T05:58:47;98734.00;;;8.80
68012;BMP180;54794;48.348;7.878;2022-11-20T06:01:24;98719.00;;;8.90
68012;BMP180;54794;48.348;7.878;2022-11-20T06:03:52;98721.00;;;8.90
68012;BMP180;54794;48.348;7.878;2022-11-20T06:06:20;98712.00;;;9.00
68012;BMP180;54794;48.348;7.878;2022-11-20T06:08:48;98727.00;;;8.80
68012;BMP180;54794;48.348;7.878;2022-11-20T06:11:16;98726.00;;;8.60
68012;BMP180;54794;48.348;7.878;2022-11-20T06:13:43;98731.00;;;8.80
68012;BMP180;54794;48.348;7.878;2022-11-20T06:16:14;98733.00;;;8.80
68012;BMP180;54794;48.348;7.878;2022-11-20T06:18:41;98740.00;;;8.80
68012;BMP180;54794;48.348;7.878;2022-11-20T06:21:12;98734.00;;;8.70
68012;BMP180;54794;48.348;7.878;2022-11-20T06:23:40;98745.00;;;8.60
68012;BMP180;54794;48.348;7.878;2022-11-20T06:26:11;98730.00;;;8.80
68012;BMP180;54794;48.348;7.878;2022-11-20T06:28:39;98727.00;;;8.80
68012;BMP180;54794;48.348;7.878;2022-11-20T06:31:07;98721.00;;;8.70
68012;BMP180;54794;48.348;7.878;2022-11-20T06:33:36;98734.00;;;8.70
68012;BMP180;54794;48.348;7.878;2022-11-20T06:36:04;98725.00;;;8.70
68012;BMP180;54794;48.348;7.878;2022-11-20T06:38:38;98726.00;;;8.70
68012;BMP180;54794;48.348;7.878;2022-11-20T06:41:06;98729.00;;;8.70
68012;BMP180;54794;48.348;7.878;2022-11-20T06:43:33;98728.00;;;8.60
68012;BMP180;54794;48.348;7.878;2022-11-20T06:46:00;98723.00;;;8.70
68012;BMP180;54794;48.348;7.878;2022-11-20T06:48:28;98719.00;;;8.70
68012;BMP180;54794;48.348;7.878;2022-11-20T06:50:56;98733.00;;;8.80
68012;BMP180;54794;48.348;7.878;2022-11-20T06:53:24;98736.00;;;8.80
68012;BMP180;54794;48.348;7.878;2022-11-20T06:55:52;98732.00;;;8.90
68012;BMP180;54794;48.348;7.878;2022-11-20T06:58:19;98734.00;;;8.80
68012;BMP180;54794;48.348;7.878;2022-11-20T07:00:46;98737.00;;;8.70
68012;BMP180;54794;48.348;7.878;2022-11-20T07:03:13;98738.00;;;8.70
68012;BMP180;54794;48.348;7.878;2022-11-20T07:05:40;98741.00;;;8.70
68012;BMP180;54794;48.348;7.878;2022-11-20T07:08:08;98737.00;;;8.70
68012;BMP180;54794;48.348;7.878;2022-11-20T07:10:35;98751.00;;;8.60
68012;BMP180;54794;48.348;7.878;2022-11-20T07:13:02;98745.00;;;8.60
68012;BMP180;54794;48.348;7.878;2022-11-20T07:15:29;98755.00;;;8.70
68012;BMP180;54794;48.348;7.878;2022-11-20T07:17:59;98754.00;;;8.60
68012;BMP180;54794;48.348;7.878;2022-11-20T07:20:26;98754.00;;;8.70
68012;BMP180;54794;48.348;7.878;2022-11-20T07:22:58;98761.00;;;8.50
68012;BMP180;54794;48.348;7.878;2022-11-20T07:25:26;98766.00;;;8.40
68012;BMP180;54794;48.348;7.878;2022-11-20T07:28:00;98767.00;;;8.50
68012;BMP180;54794;48.348;7.878;2022-11-20T07:30:28;98764.00;;;8.60
68012;BMP180;54794;48.348;7.878;2022-11-20T07:32:55;98763.00;;;8.70
68012;BMP180;54794;48.348;7.878;2022-11-20T07:35:24;98765.00;;;8.70
68012;BMP180;54794;48.348;7.878;2022-11-20T07:37:51;98770.00;;;8.80
68012;BMP180;54794;48.348;7.878;2022-11-20T07:40:19;98764.00;;;8.70
68012;BMP180;54794;48.348;7.878;2022-11-20T07:42:54;98763.00;;;8.70
68012;BMP180;54794;48.348;7.878;2022-11-20T07:45:24;98769.00;;;8.80
68012;BMP180;54794;48.348;7.878;2022-11-20T07:47:51;98770.00;;;8.80
68012;BMP180;54794;48.348;7.878;2022-11-20T07:50:20;98779.00;;;8.90
68012;BMP180;54794;48.348;7.878;2022-11-20T07:52:47;98771.00;;;8.70
68012;BMP180;54794;48.348;7.878;2022-11-20T07:55:14;98769.00;;;8.70
68012;BMP180;54794;48.348;7.878;2022-11-20T07:57:41;98771.00;;;8.80
68012;BMP180;54794;48.348;7.878;2022-11-20T08:00:10;98778.00;;;8.80
68012;BMP180;54794;48.348;7.878;2022-11-20T08:02:41;98776.00;;;8.80
68012;BMP180;54794;48.348;7.878;2022-11-20T08:05:09;98771.00;;;8.80
68012;BMP180;54794;48.348;7.878;2022-11-20T08:07:42;98780.00;;;8.60
68012;BMP180;54794;48.348;7.878;2022-11-20T08:10:14;98777.00;;;8.80
68012;BMP180;54794;48.348;7.878;2022-11-20T08:12:50;98788.00;;;8.80
68012;BMP180;54794;48.348;7.878;2022-11-20T08:15:38;98797.00;;;8.80
68012;BMP180;54794;48.348;7.878;2022-11-20T08:18:09;98794.00;;;8.80
68012;BMP180;54794;48.348;7.878;2022-11-20T08:21:04;98794.00;;;8.90
68012;BMP180;54794;48.348;7.878;2022-11-20T08:23:32;98801.00;;;8.80
68012;BMP180;54794;48.348;7.878;2022-11-20T08:25:59;98803.00;;;8.90
68012;BMP180;54794;48.348;7.878;2022-11-20T08:28:26;98808.00;;;8.60
68012;BMP180;54794;48.348;7.878;2022-11-20T08:31:01;98803.00;;;8.80
68012;BMP180;54794;48.348;7.878;2022-11-20T08:33:30;98812.00;;;8.80
68012;BMP180;54794;48.348;7.878;2022-11-20T08:36:04;98811.00;;;8.70
68012;BMP180;54794;48.348;7.878;2022-11-20T08:38:32;98817.00;;;8.80
68012;BMP180;54794;48.348;7.878;2022-11-20T08:41:02;98825.00;;;8.80
68012;BMP180;54794;48.348;7.878;2022-11-20T08:43:48;98826.00;;;8.90
68012;BMP180;54794;48.348;7.878;2022-11-20T08:46:16;98826.00;;;8.80
68012;BMP180;54794;48.348;7.878;2022-11-20T08:48:44;98819.00;;;9.00
68012;BMP180;54794;48.348;7.878;2022-11-20T08:51:12;98831.00;;;8.90
68012;BMP180;54794;48.348;7.878;2022-11-20T08:53:39;98832.00;;;8.90
68012;BMP180;54794;48.348;7.878;2022-11-20T08:56:06;98844.00;;;8.90
68012;BMP180;54794;48.348;7.878;2022-11-20T08:58:33;98833.00;;;9.00
68012;BMP180;54794;48.348;7.878;2022-11-20T09:01:22;98836.00;;;9.00
68012;BMP180;54794;48.348;7.878;2022-11-20T09:03:50;98836.00;;;9.10
68012;BMP180;54794;48.348;7.878;2022-11-20T09:06:17;98837.00;;;9.10
68012;BMP180;54794;48.348;7.878;2022-11-20T09:08:45;98832.00;;;9.10
68012;BMP180;54794;48.348;7.878;2022-11-20T09:11:12;98856.00;;;9.10
68012;BMP180;54794;48.348;7.878;2022-11-20T09:13:39;98855.00;;;9.00
68012;BMP180;54794;48.348;7.878;2022-11-20T09:16:08;98854.00;;;9.00
68012;BMP180;54794;48.348;7.878;2022-11-20T09:18:36;98860.00;;;9.20
68012;BMP180;54794;48.348;7.878;2022-11-20T09:21:11;98865.00;;;9.30
68012;BMP180;54794;48.348;7.878;2022-11-20T09:23:40;98861.00;;;9.10
68012;BMP180;54794;48.348;7.878;2022-11-20T09:26:13;98860.00;;;9.10
68012;BMP180;54794;48.348;7.878;2022-11-20T09:28:40;98857.00;;;9.10
68012;BMP180;54794;48.348;7.878;2022-11-20T09:31:33;98860.00;;;9.10
68012;BMP180;54794;48.348;7.878;2022-11-20T09:33:59;98860.00;;;9.20
68012;BMP180;54794;48.348;7.878;2022-11-20T09:36:26;98851.00;;;9.30
68012;BMP180;54794;48.348;7.878;2022-11-20T09:38:53;98856.00;;;9.40
68012;BMP180;54794;48.348;7.878;2022-11-20T09:42:00;98857.00;;;9.30
68012;BMP180;54794;48.348;7.878;2022-11-20T09:55:16;98858.00;;;9.50
68012;BMP180;54794;48.348;7.878;2022-11-20T09:57:46;98855.00;;;9.50
68012;BMP180;54794;48.348;7.878;2022-11-20T10:00:16;98857.00;;;9.50
68012;BMP180;54794;48.348;7.878;2022-11-20T10:03:14;98855.00;;;9.60
68012;BMP180;54794;48.348;7.878;2022-11-20T10:05:53;98859.00;;;9.80
68012;BMP180;54794;48.348;7.878;2022-11-20T10:08:28;98869.00;;;9.60
68012;BMP180;54794;48.348;7.878;2022-11-20T10:11:13;98862.00;;;9.70
68012;BMP180;54794;48.348;7.878;2022-11-20T10:14:07;98869.00;;;9.60
68012;BMP180;54794;48.348;7.878;2022-11-20T10:22:11;98860.00;;;9.90
68012;BMP180;54794;48.348;7.878;2022-11-20T10:25:16;98856.00;;;10.20
68012;BMP180;54794;48.348;7.878;2022-11-20T10:30:41;98855.00;;;10.10
68012;BMP180;54794;48.348;7.878;2022-11-20T10:33:29;98837.00;;;10.20
68012;BMP180;54794;48.348;7.878;2022-11-20T10:36:28;98840.00;;;10.20
68012;BMP180;54794;48.348;7.878;2022-11-20T10:39:14;98828.00;;;10.40
68012;BMP180;54794;48.348;7.878;2022-11-20T10:41:49;98831.00;;;10.20
68012;BMP180;54794;48.348;7.878;2022-11-20T10:44:39;98832.00;;;10.10
68012;BMP180;54794;48.348;7.878;2022-11-20T10:47:32;98823.00;;;10.20
68012;BMP180;54794;48.348;7.878;2022-11-20T10:50:19;98819.00;;;10.50
68012;BMP180;54794;48.348;7.878;2022-11-20T10:56:05;98807.00;;;10.90
68012;BMP180;54794;48.348;7.878;2022-11-20T11:01:28;98785.00;;;10.90
68012;BMP180;54794;48.348;7.878;2022-11-20T11:04:12;98785.00;;;11.10
68012;BMP180;54794;48.348;7.878;2022-11-20T11:08:15;98772.00;;;11.00
68012;BMP180;54794;48.348;7.878;2022-11-20T11:11:41;98774.00;;;10.50
68012;BMP180;54794;48.348;7.878;2022-11-20T11:14:49;98762.00;;;10.80
68012;BMP180;54794;48.348;7.878;2022-11-20T11:17:33;98749.00;;;10.90
68012;BMP180;54794;48.348;7.878;2022-11-20T11:20:25;98752.00;;;11.10
68012;BMP180;54794;48.348;7.878;2022-11-20T11:23:02;98748.00;;;11.10
68012;BMP180;54794;48.348;7.878;2022-11-20T11:25:36;98736.00;;;11.30
68012;BMP180;54794;48.348;7.878;2022-11-20T11:30:46;98719.00;;;11.20
68012;BMP180;54794;48.348;7.878;2022-11-20T11:33:32;98722.00;;;11.20
68012;BMP180;54794;48.348;7.878;2022-11-20T11:36:18;98726.00;;;11.00
68012;BMP180;54794;48.348;7.878;2022-11-20T11:38:58;98724.00;;;11.10
68012;BMP180;54794;48.348;7.878;2022-11-20T11:41:37;98719.00;;;11.00
68012;BMP180;54794;48.348;7.878;2022-11-20T11:44:31;98720.00;;;11.10
68012;BMP180;54794;48.348;7.878;2022-11-20T11:47:36;98715.00;;;11.00
68012;BMP180;54794;48.348;7.878;2022-11-20T11:55:42;98701.00;;;11.00
68012;BMP180;54794;48.348;7.878;2022-11-20T11:58:16;98703.00;;;10.90
68012;BMP180;54794;48.348;7.878;2022-11-20T12:01:57;98689.00;;;10.90
68012;BMP180;54794;48.348;7.878;2022-11-20T12:05:00;98684.00;;;10.90
68012;BMP180;54794;48.348;7.878;2022-11-20T12:16:35;98688.00;;;10.80
68012;BMP180;54794;48.348;7.878;2022-11-20T12:19:12;98691.00;;;10.50
68012;BMP180;54794;48.348;7.878;2022-11-20T12:22:06;98697.00;;;10.70
68012;BMP180;54794;48.348;7.878;2022-11-20T12:27:44;98687.00;;;10.90
68012;BMP180;54794;48.348;7.878;2022-11-20T12:30:15;98685.00;;;10.80
68012;BMP180;54794;48.348;7.878;2022-11-20T12:38:49;98686.00;;;10.60
68012;BMP180;54794;48.348;7.878;2022-11-20T12:48:23;98675.00;;;10.50
68012;BMP180;54794;48.348;7.878;2022-11-20T13:00:22;98666.00;;;11.30
68012;BMP180;54794;48.348;7.878;2022-11-20T13:06:15;98658.00;;;11.30
68012;BMP180;54794;48.348;7.878;2022-11-20T13:09:09;98655.00;;;11.00
68012;BMP180;54794;48.348;7.878;2022-11-20T13:12:29;98649.00;;;11.20
68012;BMP180;54794;48.348;7.878;2022-11-20T13:15:14;98649.00;;;11.10
68012;BMP180;54794;48.348;7.878;2022-11-20T13:20:23;98635.00;;;11.30
68012;BMP180;54794;48.348;7.878;2022-11-20T13:22:52;98635.00;;;10.90
68012;BMP180;54794;48.348;7.878;2022-11-20T13:25:34;98626.00;;;10.90
68012;BMP180;54794;48.348;7.878;2022-11-20T13:28:27;98618.00;;;10.90
68012;BMP180;54794;48.348;7.878;2022-11-20T13:30:56;98626.00;;;10.90
68012;BMP180;54794;48.348;7.878;2022-11-20T13:38:52;98620.00;;;11.30
68012;BMP180;54794;48.348;7.878;2022-11-20T13:41:31;98617.00;;;11.30
68012;BMP180;54794;48.348;7.878;2022-11-20T13:44:13;98620.00;;;11.20
68012;BMP180;54794;48.348;7.878;2022-11-20T13:46:46;98605.00;;;10.90
68012;BMP180;54794;48.348;7.878;2022-11-20T13:49:37;98611.00;;;10.90
68012;BMP180;54794;48.348;7.878;2022-11-20T14:01:54;98596.00;;;10.90
68012;BMP180;54794;48.348;7.878;2022-11-20T14:04:35;98593.00;;;10.90
68012;BMP180;54794;48.348;7.878;2022-11-20T14:07:06;98589.00;;;10.80
68012;BMP180;54794;48.348;7.878;2022-11-20T14:09:34;98588.00;;;10.80
68012;BMP180;54794;48.348;7.878;2022-11-20T14:12:04;98584.00;;;10.90
68012;BMP180;54794;48.348;7.878;2022-11-20T14:14:52;98575.00;;;10.60
68012;BMP180;54794;48.348;7.878;2022-11-20T14:17:23;98579.00;;;10.70
68012;BMP180;54794;48.348;7.878;2022-11-20T14:19:53;98575.00;;;10.80
68012;BMP180;54794;48.348;7.878;2022-11-20T14:22:25;98576.00;;;10.90
68012;BMP180;54794;48.348;7.878;2022-11-20T14:25:20;98575.00;;;11.00
68012;BMP180;54794;48.348;7.878;2022-11-20T14:28:00;98566.00;;;10.70
68012;BMP180;54794;48.348;7.878;2022-11-20T14:30:37;98562.00;;;10.60
68012;BMP180;54794;48.348;7.878;2022-11-20T14:33:05;98553.00;;;10.50
68012;BMP180;54794;48.348;7.878;2022-11-20T14:35:44;98556.00;;;10.60
68012;BMP180;54794;48.348;7.878;2022-11-20T14:38:19;98549.00;;;10.50
68012;BMP180;54794;48.348;7.878;2022-11-20T14:40:46;98546.00;;;10.50
68012;BMP180;54794;48.348;7.878;2022-11-20T14:43:26;98536.00;;;10.40
68012;BMP180;54794;48.348;7.878;2022-11-20T14:46:02;98550.00;;;10.40
68012;BMP180;54794;48.348;7.878;2022-11-20T14:48:35;98539.00;;;10.30
68012;BMP180;54794;48.348;7.878;2022-11-20T14:51:04;98535.00;;;10.30
68012;BMP180;54794;48.348;7.878;2022-11-20T14:53:31;98523.00;;;10.50
68012;BMP180;54794;48.348;7.878;2022-11-20T15:27:57;98524.00;;;8.80
68012;BMP180;54794;48.348;7.878;2022-11-20T15:30:48;98535.00;;;9.00
68012;BMP180;54794;48.348;7.878;2022-11-20T15:33:22;98518.00;;;9.20
68012;BMP180;54794;48.348;7.878;2022-11-20T15:36:24;98507.00;;;9.30
68012;BMP180;54794;48.348;7.878;2022-11-20T15:38:53;98498.00;;;9.50
68012;BMP180;54794;48.348;7.878;2022-11-20T15:41:20;98495.00;;;9.50
68012;BMP180;54794;48.348;7.878;2022-11-20T15:43:52;98485.00;;;9.50
68012;BMP180;54794;48.348;7.878;2022-11-20T15:46:34;98501.00;;;9.60
68012;BMP180;54794;48.348;7.878;2022-11-20T15:49:23;98501.00;;;9.60
68012;BMP180;54794;48.348;7.878;2022-11-20T15:51:56;98512.00;;;9.60
68012;BMP180;54794;48.348;7.878;2022-11-20T15:54:25;98503.00;;;9.70
68012;BMP180;54794;48.348;7.878;2022-11-20T15:57:00;98500.00;;;9.80
68012;BMP180;54794;48.348;7.878;2022-11-20T15:59:33;98495.00;;;9.80
68012;BMP180;54794;48.348;7.878;2022-11-20T16:02:11;98522.00;;;9.80
68012;BMP180;54794;48.348;7.878;2022-11-20T16:04:52;98508.00;;;9.80
68012;BMP180;54794;48.348;7.878;2022-11-20T16:07:26;98497.00;;;9.70
68012;BMP180;54794;48.348;7.878;2022-11-20T16:09:55;98501.00;;;9.70
68012;BMP180;54794;48.348;7.878;2022-11-20T16:12:32;98508.00;;;9.80
68012;BMP180;54794;48.348;7.878;2022-11-20T16:15:21;98504.00;;;9.80
68012;BMP180;54794;48.348;7.878;2022-11-20T16:18:18;98501.00;;;9.70
68012;BMP180;54794;48.348;7.878;2022-11-20T16:20:52;98518.00;;;9.70
68012;BMP180;54794;48.348;7.878;2022-11-20T16:23:27;98508.00;;;9.50
68012;BMP180;54794;48.348;7.878;2022-11-20T16:25:57;98492.00;;;9.50
68012;BMP180;54794;48.348;7.878;2022-11-20T16:28:25;98499.00;;;9.70
68012;BMP180;54794;48.348;7.878;2022-11-20T16:30:51;98501.00;;;9.70
68012;BMP180;54794;48.348;7.878;2022-11-20T16:33:18;98486.00;;;9.60
68012;BMP180;54794;48.348;7.878;2022-11-20T16:35:45;98493.00;;;9.70
68012;BMP180;54794;48.348;7.878;2022-11-20T16:38:12;98502.00;;;9.60
68012;BMP180;54794;48.348;7.878;2022-11-20T16:40:39;98496.00;;;9.60
68012;BMP180;54794;48.348;7.878;2022-11-20T16:43:10;98490.00;;;9.60
68012;BMP180;54794;48.348;7.878;2022-11-20T16:45:44;98497.00;;;9.60
68012;BMP180;54794;48.348;7.878;2022-11-20T16:48:15;98487.00;;;9.60
68012;BMP180;54794;48.348;7.878;2022-11-20T16:50:52;98485.00;;;9.40
68012;BMP180;54794;48.348;7.878;2022-11-20T16:53:21;98477.00;;;9.60
68012;BMP180;54794;48.348;7.878;2022-11-20T16:55:48;98480.00;;;9.60
68012;BMP180;54794;48.348;7.878;2022-11-20T16:58:15;98477.00;;;9.50
68012;BMP180;54794;48.348;7.878;2022-11-20T17:00:42;98474.00;;;9.60
68012;BMP180;54794;48.348;7.878;2022-11-20T17:03:17;98461.00;;;9.60
68012;BMP180;54794;48.348;7.878;2022-11-20T17:05:44;98461.00;;;9.70